Meath Environmental Platform

Observations for Trim Market St

Time AQI Temp °C Hum % Pres Pa CO μg/m³ H₂S μg/m³ NO μg/m³ NO₂ μg/m³ O₃ μg/m³ SO₂ μg/m³ PM1 μg/m³ PM2.5 μg/m³ PM10 μg/m³
Monday 17 August 2026
15:33 2 25.9 51 61,004 0.36 0 1.77 13.06 51.6 0 0.71 3.43 3.83
15:29 2 25.9 51 60,732 0 0 1.23 11.89 64.02 0 0.71 3.42 4.58
15:28 2 25.8 51 60,426 0 0 1.26 12.32 57.89 0 0.71 2.91 3.1
15:27 2 25.8 52 60,088 0 0 1.13 11.92 68.74 0 0.71 2.9 3.11
15:26 2 25.7 52 59,790 0 0 1.07 12.82 75.27 0 0.71 2.9 3.11
15:25 2 25.7 51 59,806 0 0 1.09 12.18 68.23 0 0.71 2.91 3.1
15:24 2 25.7 52 59,901 0 0 1.18 12.18 71.45 0 0 1.88 2.06
15:23 2 25.6 52 60,039 0 0 1.42 12.23 67.89 0 0 2.9 3.11
15:22 2 25.6 52 59,997 0 0 1.39 11.87 66.97 0 0 2.9 3.84
15:21 2 25.6 52 59,952 0 0 1.38 12.79 70.66 0 0.71 3.41 3.84
15:20 2 25.6 52 59,962 0 0 1.4 12.92 55.56 0 0 2.39 2.63
15:19 2 25.6 52 59,897 0 0 1.43 11.95 73.59 0 0 2.9 3.11
15:17 2 25.5 52 60,033 0 0 1.21 12.54 73.51 0 1.43 3.41 3.84
15:16 2 25.5 51 60,051 0 0 1.29 12.89 71.7 0 2.14 4.44 5.32
14:43 2 25.5 52 57,385 0 0 1.59 12.41 56.21 0 0.71 2.86 3.87
14:42 2 25.5 52 57,155 0 0 1.61 16.45 67.21 0 0.71 2.35 2.41
14:41 2 25.5 52 57,240 0 0 1.57 12.81 53.13 0 0.71 3.37 3.87
14:40 2 25.5 53 57,174 0 0 1.46 12.37 66.29 0 0.71 3.36 3.88
14:39 2 25.4 52 57,059 0 0 1.46 13.1 57.33 0 0.71 2.35 2.41
14:38 2 25.4 52 56,963 0 0 1.29 13 58.88 0 0.71 2.35 2.41